createdAt,value
2022-12-24T01:13:02.772Z,64.20
2022-12-24T01:53:52.169Z,64.20
2022-12-24T01:58:50.964Z,64.20
2022-12-24T02:06:20.638Z,64.30
2022-12-24T02:13:57.029Z,64.30
2022-12-24T02:22:15.571Z,64.30
2022-12-24T02:25:18.224Z,64.40
2022-12-24T02:28:23.315Z,64.30
2022-12-24T02:36:33.587Z,64.40
2022-12-24T02:42:00.910Z,64.30
2022-12-24T02:44:30.445Z,64.30
2022-12-24T02:59:52.863Z,64.30
2022-12-24T03:05:19.963Z,64.30
2022-12-24T03:10:34.856Z,64.30
2022-12-24T03:13:12.710Z,64.30
2022-12-24T03:15:41.180Z,64.30
2022-12-24T03:18:11.025Z,64.30
2022-12-24T03:25:38.281Z,64.30
2022-12-24T04:05:13.258Z,64.30
2022-12-24T04:32:26.689Z,64.10
2022-12-24T05:26:57.572Z,64.10
2022-12-24T05:39:17.071Z,64.20
2022-12-24T06:11:26.257Z,64.20
2022-12-24T06:16:23.712Z,64.20
2022-12-24T06:26:18.153Z,64.30
2022-12-24T06:36:21.360Z,64.30
2022-12-24T06:43:45.992Z,64.30
2022-12-24T06:56:08.448Z,64.30
2022-12-24T07:16:02.971Z,64.10
2022-12-24T07:30:59.052Z,64.20
2022-12-24T08:03:21.235Z,63.80
2022-12-24T08:20:39.940Z,63.70
2022-12-24T08:23:09.086Z,63.60
2022-12-24T08:45:26.619Z,63.40
2022-12-24T08:47:53.416Z,63.40
2022-12-24T08:50:20.114Z,63.40
2022-12-24T08:52:46.859Z,63.40
2022-12-24T08:55:13.639Z,63.40
2022-12-24T09:39:41.955Z,63.10
2022-12-24T09:45:06.628Z,63.00
2022-12-24T09:47:54.493Z,63.00
2022-12-24T09:53:34.795Z,62.90
2022-12-24T09:56:07.676Z,62.90
2022-12-24T09:58:41.776Z,62.90
2022-12-24T10:01:13.364Z,62.90
2022-12-24T10:03:40.661Z,62.80
2022-12-24T10:06:28.986Z,62.80
2022-12-24T10:09:28.774Z,62.80
2022-12-24T10:12:22.579Z,62.80
2022-12-24T10:15:09.047Z,62.80
2022-12-24T10:20:32.773Z,62.70
2022-12-24T10:28:17.708Z,62.70
2022-12-24T10:30:49.688Z,62.70
2022-12-24T10:33:29.169Z,62.70
2022-12-24T10:35:57.308Z,62.70
2022-12-24T10:38:24.347Z,62.70
2022-12-24T10:40:54.749Z,62.70
2022-12-24T10:43:24.238Z,62.70
2022-12-24T10:45:57.859Z,62.70
2022-12-24T10:48:49.997Z,62.70
2022-12-24T10:51:41.659Z,62.70
2022-12-24T10:54:17.289Z,62.80
2022-12-24T10:56:50.488Z,62.70
2022-12-24T10:59:27.038Z,62.70
2022-12-24T11:04:25.389Z,62.70
2022-12-24T11:06:53.197Z,62.70
2022-12-24T11:09:35.167Z,62.70
2022-12-24T11:12:09.269Z,62.70
2022-12-24T11:14:38.868Z,62.70
2022-12-24T11:19:39.414Z,62.80
2022-12-24T11:22:18.191Z,62.70
2022-12-24T11:24:50.123Z,62.70
2022-12-24T11:27:29.896Z,62.70
2022-12-24T11:30:30.120Z,62.70
2022-12-24T11:33:05.707Z,62.70
2022-12-24T11:40:43.784Z,62.80
2022-12-24T11:43:21.938Z,63.00
2022-12-24T11:45:50.208Z,63.10
2022-12-24T11:48:32.006Z,63.50
2022-12-24T11:51:07.513Z,63.60
2022-12-24T11:53:43.965Z,63.70
2022-12-24T11:56:40.486Z,63.60
2022-12-24T11:59:26.068Z,63.70
2022-12-24T12:02:18.087Z,63.70
2022-12-24T12:04:49.477Z,63.70
2022-12-24T12:07:22.501Z,63.70
2022-12-24T12:09:58.583Z,63.90
2022-12-24T12:12:28.752Z,63.80
2022-12-24T12:14:57.867Z,63.90
2022-12-24T12:17:36.466Z,63.90
2022-12-24T12:20:14.557Z,63.90
2022-12-24T12:23:04.795Z,63.90
2022-12-24T12:25:55.274Z,63.80
2022-12-24T12:28:30.351Z,63.70
2022-12-24T12:31:20.575Z,63.60
2022-12-24T12:34:00.619Z,63.60
2022-12-24T12:36:37.607Z,63.60
2022-12-24T12:39:04.788Z,63.50
2022-12-24T12:41:44.983Z,63.50
2022-12-24T12:44:38.327Z,63.50
2022-12-24T12:47:41.496Z,63.50
2022-12-24T12:50:23.104Z,63.40
2022-12-24T12:53:14.825Z,63.40
2022-12-24T12:56:11.085Z,63.40
2022-12-24T12:58:43.633Z,63.30
2022-12-24T13:01:32.069Z,63.30
2022-12-24T13:04:02.558Z,63.20
2022-12-24T13:06:50.061Z,63.20
2022-12-24T13:09:23.742Z,63.20
2022-12-24T13:12:03.265Z,63.20
2022-12-24T13:14:42.845Z,63.20
2022-12-24T13:17:26.347Z,63.10
2022-12-24T13:20:11.921Z,63.10
2022-12-24T13:27:35.016Z,63.10
2022-12-24T13:30:24.911Z,63.20
2022-12-24T13:32:53.916Z,63.10
2022-12-24T13:35:20.599Z,63.10
2022-12-24T13:37:48.903Z,63.10
2022-12-24T13:40:24.395Z,63.00
2022-12-24T13:43:01.084Z,63.80
2022-12-24T13:45:31.046Z,63.00
2022-12-24T13:47:58.999Z,63.00
2022-12-24T13:50:43.276Z,63.10
2022-12-24T13:53:23.718Z,63.20
2022-12-24T13:55:56.074Z,63.30
2022-12-24T13:58:24.638Z,63.40
2022-12-24T14:01:03.147Z,63.40
2022-12-24T14:03:35.073Z,63.60
2022-12-24T14:06:07.145Z,63.70
2022-12-24T14:08:44.450Z,63.70
2022-12-24T14:11:20.310Z,63.70
2022-12-24T14:13:47.163Z,63.70
2022-12-24T14:16:20.375Z,63.70
2022-12-24T14:19:09.088Z,63.80
2022-12-24T14:21:42.200Z,63.80
2022-12-24T14:24:23.141Z,63.80
2022-12-24T14:27:12.515Z,63.80
2022-12-24T14:30:16.049Z,63.80
2022-12-24T14:32:42.915Z,63.80
2022-12-24T14:35:21.546Z,63.80
2022-12-24T14:38:06.513Z,63.80
2022-12-24T14:40:59.994Z,63.80
2022-12-24T14:43:52.629Z,63.70
2022-12-24T14:46:45.960Z,63.70
2022-12-24T14:49:32.400Z,63.70
2022-12-24T14:52:37.779Z,63.70
2022-12-24T14:55:00.909Z,63.70
2022-12-24T14:57:27.915Z,63.70
2022-12-24T15:00:05.512Z,63.70
2022-12-24T15:02:47.254Z,63.70
2022-12-24T15:05:16.691Z,64.50
2022-12-24T15:07:56.087Z,63.80
2022-12-24T15:10:33.971Z,64.60
2022-12-24T15:13:36.746Z,63.80
2022-12-24T15:16:07.701Z,63.80
2022-12-24T15:18:37.987Z,63.70
2022-12-24T15:21:13.835Z,63.70
2022-12-24T15:23:49.418Z,63.70
2022-12-24T15:26:29.338Z,63.70
2022-12-24T15:29:03.149Z,63.60
2022-12-24T15:34:01.874Z,63.40
2022-12-24T15:36:37.006Z,63.60
2022-12-24T15:39:13.725Z,63.50
2022-12-24T15:42:02.348Z,63.50
2022-12-24T15:44:34.532Z,63.50
2022-12-24T15:47:04.226Z,63.50
2022-12-24T15:49:33.248Z,63.50
2022-12-24T15:52:10.624Z,63.40
2022-12-24T15:54:37.562Z,63.50
2022-12-24T15:57:31.462Z,63.40
2022-12-24T16:00:00.798Z,63.50
2022-12-24T16:02:39.683Z,63.40
2022-12-24T16:05:39.764Z,63.40
2022-12-24T16:08:23.057Z,63.40
2022-12-24T16:10:53.963Z,63.40
2022-12-24T16:13:32.607Z,63.30
2022-12-24T16:16:03.105Z,65.50
2022-12-24T16:18:47.196Z,63.30
2022-12-24T16:21:21.069Z,64.10
2022-12-24T16:23:52.402Z,63.40
2022-12-24T16:28:46.567Z,63.20
2022-12-24T16:31:28.673Z,63.30
2022-12-24T16:33:58.576Z,65.70
2022-12-24T16:36:25.443Z,63.10
2022-12-24T16:39:10.746Z,63.10
2022-12-24T16:41:57.519Z,64.50
2022-12-24T16:44:24.280Z,66.10
2022-12-24T16:46:52.357Z,63.10
2022-12-24T16:49:20.872Z,64.00
2022-12-24T16:51:47.659Z,63.90
2022-12-24T16:54:15.167Z,63.10
2022-12-24T16:56:43.141Z,65.30
2022-12-24T16:59:22.131Z,65.00
2022-12-24T17:01:49.269Z,65.10
2022-12-24T17:04:17.819Z,65.60
2022-12-24T17:06:45.098Z,63.10
2022-12-24T17:09:12.644Z,64.10
2022-12-24T17:11:39.518Z,64.10
2022-12-24T17:14:08.595Z,65.00
2022-12-24T17:16:37.383Z,63.90
2022-12-24T17:19:05.039Z,64.20
2022-12-24T17:21:32.373Z,66.70
2022-12-24T17:23:59.499Z,67.50
2022-12-24T17:26:26.765Z,66.10
2022-12-24T17:28:57.283Z,64.50
2022-12-24T17:31:25.210Z,62.90
2022-12-24T17:33:52.812Z,64.50
2022-12-24T17:36:20.721Z,65.50
2022-12-24T17:38:47.575Z,67.00
2022-12-24T17:41:17.896Z,64.60
2022-12-24T17:43:45.260Z,64.70
2022-12-24T17:46:18.816Z,64.60
2022-12-24T17:48:45.524Z,66.80
2022-12-24T17:51:14.048Z,67.00
2022-12-24T17:53:42.708Z,66.20
2022-12-24T17:56:12.349Z,65.50
2022-12-24T17:58:40.566Z,64.50
2022-12-24T18:01:14.847Z,65.80
2022-12-24T18:06:11.093Z,64.50
2022-12-24T18:08:39.029Z,64.40
2022-12-24T18:11:12.075Z,67.70
2022-12-24T18:13:39.723Z,65.20
2022-12-24T18:16:21.257Z,64.40
2022-12-24T18:18:49.867Z,64.40
2022-12-24T18:21:18.559Z,66.30
2022-12-24T18:23:47.302Z,67.50
2022-12-24T18:26:15.682Z,67.30
2022-12-24T18:28:43.402Z,64.30
2022-12-24T18:31:21.827Z,66.80
2022-12-24T18:33:50.094Z,67.40
2022-12-24T18:36:17.882Z,64.30
2022-12-24T18:38:44.756Z,65.70
2022-12-24T18:41:17.470Z,64.30
2022-12-24T18:43:44.369Z,64.20
2022-12-24T18:46:13.814Z,64.20
2022-12-24T18:48:40.953Z,66.50
2022-12-24T18:51:09.226Z,67.20
2022-12-24T18:53:36.810Z,64.20
2022-12-24T18:56:12.598Z,64.10
2022-12-24T18:58:42.042Z,65.00
2022-12-24T19:01:24.469Z,64.10
2022-12-24T19:06:20.196Z,64.10
2022-12-24T19:08:57.168Z,64.10
2022-12-24T19:11:25.139Z,64.00
2022-12-24T19:13:52.958Z,64.10
2022-12-24T19:16:21.067Z,64.10
2022-12-24T19:18:48.054Z,64.10
2022-12-24T19:21:17.168Z,64.10
2022-12-24T19:23:44.507Z,66.30
2022-12-24T19:26:12.785Z,66.20
2022-12-24T19:28:40.129Z,64.10
2022-12-24T19:31:09.770Z,64.00
2022-12-24T19:33:44.796Z,64.00
2022-12-24T19:36:14.630Z,64.00
2022-12-24T19:38:42.184Z,64.80
2022-12-24T19:41:13.533Z,64.00
2022-12-24T19:43:42.684Z,66.10
2022-12-24T19:46:11.447Z,66.20
2022-12-24T19:48:38.535Z,65.80
2022-12-24T19:51:08.003Z,66.20
2022-12-24T19:53:35.695Z,66.00
2022-12-24T19:56:03.409Z,63.90
2022-12-24T19:58:32.580Z,63.80
2022-12-24T20:01:15.233Z,63.80
2022-12-24T20:03:43.602Z,65.60
2022-12-24T20:06:10.520Z,63.90
2022-12-24T20:08:38.073Z,63.90
2022-12-24T20:11:09.732Z,63.90
2022-12-24T20:13:38.199Z,64.00
2022-12-24T20:16:14.923Z,66.50
2022-12-24T20:18:41.961Z,64.00
2022-12-24T20:21:11.680Z,64.10
2022-12-24T20:23:40.106Z,64.10
2022-12-24T20:26:10.690Z,64.00
2022-12-24T20:28:40.818Z,64.10
2022-12-24T20:31:17.029Z,64.00
2022-12-24T20:33:45.544Z,64.10
2022-12-24T20:36:15.757Z,64.20
2022-12-24T20:38:43.076Z,64.20
2022-12-24T20:41:11.098Z,64.20
2022-12-24T20:43:45.108Z,64.10
2022-12-24T20:46:16.795Z,64.10
2022-12-24T20:48:43.938Z,65.70
2022-12-24T20:51:24.136Z,64.00
2022-12-24T20:53:53.465Z,64.00
2022-12-24T21:01:18.416Z,63.80
2022-12-24T21:03:45.404Z,63.80
2022-12-24T21:06:12.803Z,63.90
2022-12-24T21:11:25.495Z,63.90
2022-12-24T21:13:53.258Z,67.50
2022-12-24T21:16:20.169Z,64.00
2022-12-24T21:18:46.938Z,64.00
2022-12-24T21:21:13.697Z,64.00
2022-12-24T21:23:40.449Z,63.90
2022-12-24T21:26:09.181Z,63.90
2022-12-24T21:28:35.944Z,63.80
2022-12-24T21:31:08.546Z,63.80
2022-12-24T21:33:38.318Z,63.70
2022-12-24T21:36:06.155Z,63.80
2022-12-24T21:38:33.700Z,63.80
2022-12-24T21:41:10.215Z,63.80
2022-12-24T21:43:37.882Z,63.90
2022-12-24T21:46:09.582Z,65.40
2022-12-24T21:48:56.401Z,64.90
2022-12-24T21:51:24.933Z,64.10
2022-12-24T21:54:12.136Z,64.10
2022-12-24T21:56:57.722Z,65.00
2022-12-24T21:59:27.078Z,64.10
2022-12-24T22:01:55.258Z,64.00
2022-12-24T22:04:22.708Z,64.00
2022-12-24T22:07:07.836Z,63.90
2022-12-24T22:09:53.376Z,66.80
2022-12-24T22:12:21.115Z,64.70
2022-12-24T22:14:47.832Z,66.30
2022-12-24T22:17:18.194Z,63.60
2022-12-24T22:19:49.085Z,63.60
2022-12-24T22:22:15.890Z,63.60
2022-12-24T22:24:42.742Z,63.50
2022-12-24T22:27:09.408Z,63.40
2022-12-24T22:29:36.228Z,63.40
2022-12-24T22:32:03.104Z,63.30
2022-12-24T22:34:31.528Z,63.30
2022-12-24T22:36:58.356Z,63.20
2022-12-24T22:39:26.291Z,63.20
2022-12-24T22:41:53.240Z,63.20
2022-12-24T22:44:20.053Z,63.10
2022-12-24T22:46:46.778Z,63.20
2022-12-24T22:49:14.135Z,63.10
2022-12-24T22:51:40.978Z,63.10
2022-12-24T22:54:07.668Z,63.10
2022-12-24T22:56:40.693Z,63.10
2022-12-24T22:59:09.505Z,63.00
2022-12-24T23:01:40.017Z,63.00
2022-12-24T23:04:07.677Z,63.00
2022-12-24T23:06:35.401Z,63.00
2022-12-24T23:09:04.142Z,63.10
2022-12-24T23:11:30.988Z,63.10
2022-12-24T23:14:16.206Z,63.10
2022-12-24T23:16:42.943Z,63.20
2022-12-24T23:19:10.195Z,63.20
2022-12-24T23:21:36.973Z,63.30
2022-12-24T23:24:04.204Z,63.30
2022-12-24T23:26:32.009Z,63.30
2022-12-24T23:28:58.843Z,63.30
2022-12-24T23:31:26.455Z,63.40
2022-12-24T23:33:53.450Z,63.30
2022-12-24T23:36:21.060Z,63.30
2022-12-24T23:38:48.450Z,63.30
2022-12-24T23:41:18.535Z,63.30
2022-12-24T23:43:45.824Z,63.30
2022-12-24T23:46:14.547Z,66.10
2022-12-24T23:48:41.641Z,63.30
2022-12-24T23:51:14.457Z,63.20
2022-12-24T23:53:41.604Z,64.60
2022-12-24T23:58:39.359Z,63.60
